Austin, Canada
Current Conditions -  °F | °C
As of 3:00 PM on Tuesday 21 Oct 2014 (Local Time) from CYPG Reporting Station
Clear Clear  
Wind Chill: 61°   Ceiling: Unl
Heat Index: 61°   Visibility: 15mi
Dew Point: 43°   Wind: 22mph
Humidity: 52%   Direction: 140°SE
Pressure: 29.82"   Gusts: 35mph
Location:  49.95°N, 98.93°W
Report Text: CYPG 212000Z 14019G30KT 15SM SKC 16/06 A2982 RMK SLP104
Loading
Personal Weather Stations






























Interactive Weather Map
Tropical Storm Tracking
New forecast layout! Learn more

10-Day Weather Forecast

Advertisements
Track Severe Weather on mobile